createdAt,value
2019-03-26T00:05:14.307Z,8.17
2019-03-26T00:10:35.615Z,6.70
2019-03-26T00:15:56.537Z,7.03
2019-03-26T00:21:17.164Z,9.43
2019-03-26T00:26:38.145Z,9.93
2019-03-26T00:31:59.262Z,9.43
2019-03-26T00:37:20.900Z,10.57
2019-03-26T00:42:42.021Z,11.43
2019-03-26T00:48:03.728Z,8.23
2019-03-26T00:53:24.593Z,11.23
2019-03-26T00:58:45.241Z,9.43
2019-03-26T01:04:06.435Z,9.30
2019-03-26T01:09:27.659Z,7.97
2019-03-26T01:14:48.753Z,8.33
2019-03-26T01:20:09.959Z,8.97
2019-03-26T01:25:30.814Z,10.57
2019-03-26T01:30:51.834Z,8.40
2019-03-26T01:36:13.301Z,9.73
2019-03-26T01:41:34.375Z,8.03
2019-03-26T01:46:55.671Z,9.63
2019-03-26T01:52:16.639Z,7.00
2019-03-26T01:57:37.344Z,9.67
2019-03-26T02:02:58.717Z,10.83
2019-03-26T02:08:19.897Z,8.73
2019-03-26T02:13:41.064Z,8.80
2019-03-26T02:19:02.138Z,8.60
2019-03-26T02:24:22.925Z,8.73
2019-03-26T02:29:43.521Z,11.37
2019-03-26T02:35:17.179Z,9.20
2019-03-26T02:40:27.220Z,8.40
2019-03-26T02:45:49.448Z,12.10
2019-03-26T02:51:10.168Z,8.80
2019-03-26T02:56:31.450Z,13.90
2019-03-26T03:01:52.832Z,10.20
2019-03-26T03:07:13.998Z,12.27
2019-03-26T03:12:35.338Z,13.97
2019-03-26T03:17:56.426Z,15.00
2019-03-26T03:23:17.635Z,16.20
2019-03-26T03:28:38.764Z,18.80
2019-03-26T03:33:59.945Z,16.83
2019-03-26T03:39:21.330Z,16.53
2019-03-26T03:44:42.430Z,19.83
2019-03-26T03:50:04.357Z,24.13
2019-03-26T03:55:25.366Z,23.60
2019-03-26T04:00:46.573Z,27.20
2019-03-26T04:06:10.236Z,32.43
2019-03-26T04:11:31.228Z,37.67
2019-03-26T04:16:52.427Z,41.23
2019-03-26T04:22:13.559Z,38.23
2019-03-26T04:27:36.829Z,45.47
2019-03-26T04:32:57.468Z,38.40
2019-03-26T04:38:18.470Z,42.63
2019-03-26T04:43:39.638Z,39.30
2019-03-26T04:49:10.227Z,43.70
2019-03-26T04:54:30.933Z,41.37
2019-03-26T04:59:52.358Z,38.33
2019-03-26T05:05:13.356Z,37.70
2019-03-26T05:10:34.851Z,38.43
2019-03-26T05:15:56.018Z,31.00
2019-03-26T05:21:17.216Z,29.23
2019-03-26T05:26:38.437Z,33.43
2019-03-26T05:31:59.268Z,29.83
2019-03-26T05:37:20.495Z,30.30
2019-03-26T05:42:41.526Z,32.27
2019-03-26T05:48:03.123Z,27.40
2019-03-26T05:53:23.911Z,26.33
2019-03-26T05:58:45.028Z,24.00
2019-03-26T06:04:06.197Z,24.43
2019-03-26T06:09:26.784Z,21.77
2019-03-26T06:14:47.700Z,22.77
2019-03-26T06:20:09.967Z,20.93
2019-03-26T06:25:31.266Z,21.63
2019-03-26T06:30:52.391Z,28.17
2019-03-26T06:36:13.479Z,24.83
2019-03-26T06:41:34.750Z,26.73
2019-03-26T06:46:55.777Z,20.80
2019-03-26T06:52:16.821Z,19.00
2019-03-26T06:57:37.510Z,15.57
2019-03-26T07:03:00.163Z,19.30
2019-03-26T07:08:20.948Z,14.63
2019-03-26T07:13:41.624Z,13.07
2019-03-26T07:19:03.087Z,11.80
2019-03-26T07:24:24.203Z,13.50
2019-03-26T07:29:45.434Z,14.53
2019-03-26T07:35:07.500Z,11.07
2019-03-26T07:40:28.155Z,14.87
2019-03-26T07:45:48.943Z,10.07
2019-03-26T07:51:10.267Z,9.10
2019-03-26T07:56:32.285Z,12.30
2019-03-26T08:01:53.812Z,5.43
2019-03-26T08:07:14.623Z,11.40
2019-03-26T08:12:36.043Z,15.63
2019-03-26T08:17:56.984Z,11.90
2019-03-26T08:23:17.806Z,15.90
2019-03-26T08:28:38.911Z,15.20
2019-03-26T08:34:00.067Z,15.23
2019-03-26T08:39:20.988Z,16.27
2019-03-26T08:44:45.963Z,12.83
2019-03-26T08:50:07.408Z,12.37
2019-03-26T08:55:28.481Z,11.63
2019-03-26T09:00:49.200Z,9.50
2019-03-26T09:06:10.698Z,16.17
2019-03-26T09:11:31.401Z,7.83
2019-03-26T09:16:52.822Z,10.33
2019-03-26T09:22:13.692Z,7.67
2019-03-26T09:27:35.147Z,13.87
2019-03-26T09:32:56.223Z,11.37
2019-03-26T09:38:16.928Z,8.90
2019-03-26T09:43:37.678Z,14.47
2019-03-26T09:48:58.391Z,7.53
2019-03-26T09:54:19.689Z,6.63
2019-03-26T09:59:40.932Z,5.77
2019-03-26T10:05:01.736Z,9.57
2019-03-26T10:10:22.959Z,10.97
2019-03-26T10:15:44.282Z,5.07
2019-03-26T10:21:05.193Z,10.03
2019-03-26T10:26:26.123Z,5.23
2019-03-26T10:31:47.356Z,10.57
2019-03-26T10:37:08.692Z,6.67
2019-03-26T10:42:29.870Z,9.43
2019-03-26T10:47:50.972Z,8.13
2019-03-26T10:53:12.267Z,5.87
2019-03-26T10:58:33.214Z,4.60
2019-03-26T11:03:53.916Z,7.57
2019-03-26T11:09:24.165Z,5.47
2019-03-26T11:14:37.737Z,6.37
2019-03-26T11:20:00.383Z,8.97
2019-03-26T11:25:21.387Z,8.30
2019-03-26T11:30:42.446Z,10.10
2019-03-26T11:36:03.641Z,9.90
2019-03-26T11:41:24.998Z,7.37
2019-03-26T11:46:46.064Z,13.13
2019-03-26T11:52:07.197Z,7.67
2019-03-26T11:57:27.876Z,7.13
2019-03-26T12:02:48.675Z,8.50
2019-03-26T12:08:09.643Z,3.60
2019-03-26T12:13:30.982Z,4.60
2019-03-26T12:18:52.327Z,3.63
2019-03-26T12:24:13.176Z,3.00
2019-03-26T12:29:34.593Z,7.00
2019-03-26T12:34:55.692Z,8.23
2019-03-26T12:40:17.047Z,7.30
2019-03-26T12:45:38.130Z,5.67
2019-03-26T12:50:59.084Z,4.93
2019-03-26T12:56:20.061Z,5.80
2019-03-26T13:01:41.159Z,6.37
2019-03-26T13:07:02.559Z,7.37
2019-03-26T13:12:23.907Z,6.23
2019-03-26T13:17:45.295Z,2.93
2019-03-26T13:23:06.536Z,5.13
2019-03-26T13:28:27.751Z,4.80
2019-03-26T13:33:48.880Z,2.87
2019-03-26T13:39:10.362Z,6.27
2019-03-26T13:44:31.975Z,3.33
2019-03-26T13:49:53.009Z,5.17
2019-03-26T13:55:14.373Z,7.77
2019-03-26T14:00:37.254Z,6.53
2019-03-26T14:05:58.420Z,5.40
2019-03-26T14:11:19.419Z,5.10
2019-03-26T14:16:40.731Z,5.17
2019-03-26T14:22:02.070Z,5.43
2019-03-26T14:27:24.344Z,8.57
2019-03-26T14:32:45.591Z,8.37
2019-03-26T14:38:06.231Z,5.30
2019-03-26T14:43:27.313Z,8.77
2019-03-26T14:48:48.562Z,7.70
2019-03-26T14:54:09.782Z,4.80
2019-03-26T14:59:30.766Z,8.17
2019-03-26T15:04:51.423Z,3.83
2019-03-26T15:10:13.072Z,3.53
2019-03-26T15:15:36.607Z,5.50
2019-03-26T15:20:57.530Z,5.43
2019-03-26T15:26:18.827Z,7.77
2019-03-26T15:31:39.932Z,5.13
2019-03-26T15:37:01.112Z,9.00
2019-03-26T15:42:22.315Z,7.57
2019-03-26T15:47:43.830Z,5.17
2019-03-26T15:53:05.028Z,4.07
2019-03-26T15:58:26.103Z,5.20
2019-03-26T16:03:47.288Z,8.87
2019-03-26T16:09:08.520Z,7.37
2019-03-26T16:14:29.744Z,5.77
2019-03-26T16:19:50.904Z,8.13
2019-03-26T16:25:12.083Z,7.70
2019-03-26T16:30:34.612Z,4.73
2019-03-26T16:35:55.719Z,6.37
2019-03-26T16:41:16.955Z,7.07
2019-03-26T16:46:37.813Z,5.57
2019-03-26T16:51:58.972Z,4.43
2019-03-26T16:57:20.190Z,3.57
2019-03-26T17:02:41.032Z,3.30
2019-03-26T17:08:02.286Z,4.63
2019-03-26T17:13:23.543Z,3.83
2019-03-26T17:18:44.315Z,5.80
2019-03-26T17:24:05.716Z,5.50
2019-03-26T17:29:26.892Z,3.73
2019-03-26T17:34:47.654Z,7.27
2019-03-26T17:40:09.080Z,6.03
2019-03-26T17:45:29.864Z,6.27
2019-03-26T17:50:50.902Z,5.17
2019-03-26T17:56:12.111Z,7.90
2019-03-26T18:01:33.228Z,10.17
2019-03-26T18:06:53.747Z,8.97
2019-03-26T18:12:15.331Z,9.13
2019-03-26T18:17:36.496Z,7.40
2019-03-26T18:22:57.443Z,9.63
2019-03-26T18:28:18.417Z,11.87
2019-03-26T18:33:39.584Z,9.07
2019-03-26T18:39:00.207Z,10.53
2019-03-26T18:44:21.340Z,11.00
2019-03-26T18:49:42.072Z,9.77
2019-03-26T18:55:03.907Z,8.77
2019-03-26T19:00:32.851Z,9.70
2019-03-26T19:05:53.727Z,11.03
2019-03-26T19:11:14.659Z,8.27
2019-03-26T19:16:35.899Z,11.87
2019-03-26T19:21:57.031Z,7.17
2019-03-26T19:27:18.275Z,9.83
2019-03-26T19:32:39.360Z,7.00
2019-03-26T19:38:00.430Z,9.13
2019-03-26T19:43:21.832Z,6.93
2019-03-26T19:48:42.698Z,8.57
2019-03-26T19:54:03.921Z,10.10
2019-03-26T19:59:24.417Z,8.63
2019-03-26T20:04:45.768Z,5.83
2019-03-26T20:10:07.539Z,6.23
2019-03-26T20:15:28.065Z,8.07
2019-03-26T20:20:49.466Z,8.40
2019-03-26T20:26:10.450Z,6.87
2019-03-26T20:31:31.546Z,9.87
2019-03-26T20:36:52.614Z,10.13
2019-03-26T20:42:13.951Z,11.37
2019-03-26T20:47:35.185Z,8.00
2019-03-26T20:52:56.833Z,6.43
2019-03-26T20:58:17.869Z,5.80
2019-03-26T21:03:38.849Z,8.60
2019-03-26T21:08:59.824Z,5.97
2019-03-26T21:14:20.502Z,5.17
2019-03-26T21:19:41.490Z,6.43
2019-03-26T21:25:04.357Z,7.93
2019-03-26T21:30:25.517Z,5.90
2019-03-26T21:35:46.155Z,7.00
2019-03-26T21:41:07.134Z,11.07
2019-03-26T21:46:27.740Z,6.77
2019-03-26T21:51:49.005Z,6.70
2019-03-26T21:57:10.036Z,6.67
2019-03-26T22:02:31.194Z,8.10
2019-03-26T22:07:52.578Z,7.07
2019-03-26T22:13:13.509Z,5.63
2019-03-26T22:18:34.701Z,3.77
2019-03-26T22:24:09.037Z,5.80
2019-03-26T22:29:30.338Z,6.40
2019-03-26T22:34:51.414Z,4.03
2019-03-26T22:40:13.219Z,6.40
2019-03-26T22:45:34.629Z,7.77
2019-03-26T22:50:55.531Z,9.07
2019-03-26T22:56:16.655Z,9.50
2019-03-26T23:01:37.344Z,12.37
2019-03-26T23:06:58.787Z,9.47
2019-03-26T23:12:19.955Z,10.57
2019-03-26T23:17:41.275Z,13.73
2019-03-26T23:23:02.296Z,18.07
2019-03-26T23:28:23.560Z,16.33
2019-03-26T23:33:44.642Z,16.77
2019-03-26T23:39:06.779Z,16.60
2019-03-26T23:44:27.634Z,16.87
2019-03-26T23:49:48.897Z,17.07
2019-03-26T23:55:10.402Z,14.43
